Strona główna
METAR-TAF:

METAR-TAF

Lotnisko :

Port lotniczy Saint-Brieuc - Armor

Saint-Brieuc, Francja

Szerokość geograficzna: 48-32N, Długość geograficzna: 002-51W, wysokość: 138 m

Aktualna obserwacja pogody

Raport powstał 34 minut temu, godzina 00:00 UTC
Wiatr 9 kt od zachód
Temperatura 21°C
Wilgotność 64%
Ciśnienie 1013 hPa
Widzialność 10 km lub więcej
Brak chmur poniżej 1500 m i brak chmur cumulonimbus

METAR: LFRT 240000Z AUTO 27009KT CAVOK 21/14 Q1013

czas: 02:34 (00:34 UTC)


TAF: brakujący

Obserwacja i prognoza pogody dla ponad 4000 lotnisk (raport METAR i TAF).

Dostępne stacje oznaczono żółtymi i czerwonymi punktami na mapie.

Najedź kursorem aby zobaczyć nazwę stacji.

Kliknij aby zobaczyć obserwacje i prognozy pogody.

Aby zmienić mapę: kliknij na zielony przycisk z czarnym krzyżykiem, aby powiększyć; na zielony przycisk z myślnikiem, aby pomniejszyć; na zielone strzałki, aby przejść do map sąsiednich.


METAR-TAF: